createdAt,value
2022-12-23T00:03:22.554Z,99240.59
2022-12-23T00:08:24.649Z,99233.88
2022-12-23T00:13:44.811Z,99232.72
2022-12-23T00:18:46.488Z,99230.41
2022-12-23T00:23:49.376Z,99209.19
2022-12-23T00:28:51.949Z,99197.16
2022-12-23T00:33:54.373Z,99187.81
2022-12-23T00:39:15.914Z,99182.59
2022-12-23T00:44:17.616Z,99171.19
2022-12-23T00:49:38.737Z,99170.34
2022-12-23T00:54:40.620Z,99161.09
2022-12-23T00:59:42.257Z,99156.34
2022-12-23T01:05:10.246Z,99168.22
2022-12-23T01:10:11.884Z,99169.06
2022-12-23T01:15:13.491Z,99162.72
2022-12-23T01:20:15.162Z,99159.19
2022-12-23T01:25:17.189Z,99148.47
2022-12-23T01:30:18.948Z,99147.78
2022-12-23T01:35:20.567Z,99140.59
2022-12-23T01:40:22.334Z,99138.22
2022-12-23T01:45:28.447Z,99128.03
2022-12-23T01:50:48.336Z,99134.22
2022-12-23T01:55:56.571Z,99119.81
2022-12-23T02:01:17.644Z,99129.56
2022-12-23T02:06:41.591Z,99127.88
2022-12-23T02:11:56.565Z,99116.31
2022-12-23T02:17:15.045Z,99121.66
2022-12-23T02:22:44.623Z,99128.41
2022-12-23T02:28:43.873Z,99126.09
2022-12-23T02:34:14.932Z,99126.28
2022-12-23T02:39:24.420Z,99120.28
2022-12-23T02:44:40.611Z,99114.47
2022-12-23T02:49:47.644Z,99108.16
2022-12-23T02:54:53.488Z,99114.41
2022-12-23T02:59:57.060Z,99111.78
2022-12-23T03:05:00.901Z,99111.81
2022-12-23T03:10:17.296Z,99108.31
2022-12-23T03:15:56.277Z,99097.63
2022-12-23T03:21:07.194Z,99089.41
2022-12-23T03:26:16.458Z,99094.00
2022-12-23T03:31:24.487Z,99092.50
2022-12-23T03:36:31.241Z,99087.50
2022-12-23T03:41:39.420Z,99080.66
2022-12-23T03:46:44.886Z,99087.25
2022-12-23T03:51:56.428Z,99092.78
2022-12-23T03:57:03.451Z,99085.38
2022-12-23T04:02:31.804Z,99098.03
2022-12-23T04:07:53.419Z,99089.94
2022-12-23T04:12:55.320Z,99095.78
2022-12-23T04:17:58.045Z,99091.91
2022-12-23T04:22:59.701Z,99082.94
2022-12-23T04:28:01.338Z,99098.22
2022-12-23T04:33:03.421Z,99091.47
2022-12-23T04:38:05.147Z,99095.00
2022-12-23T04:43:06.775Z,99086.91
2022-12-23T04:48:09.335Z,99082.84
2022-12-23T04:53:11.019Z,99092.91
2022-12-23T04:58:13.009Z,99093.94
2022-12-23T05:03:14.760Z,99095.44
2022-12-23T05:08:16.479Z,99096.28
2022-12-23T05:13:18.112Z,99088.56
2022-12-23T05:18:20.178Z,99094.59
2022-12-23T05:23:21.837Z,99091.59
2022-12-23T05:28:23.885Z,99083.66
2022-12-23T05:33:26.051Z,99094.13
2022-12-23T05:38:28.142Z,99096.47
2022-12-23T05:43:29.787Z,99105.19
2022-12-23T05:48:31.514Z,99097.59
2022-12-23T05:53:33.158Z,99088.81
2022-12-23T05:58:34.810Z,99107.19
2022-12-23T06:03:36.657Z,99108.38
2022-12-23T06:08:38.378Z,99114.75
2022-12-23T06:13:40.420Z,99116.94
2022-12-23T06:18:42.651Z,99117.44
2022-12-23T06:23:44.482Z,99122.50
2022-12-23T06:28:46.144Z,99124.50
2022-12-23T06:33:47.749Z,99135.78
2022-12-23T06:38:49.421Z,99139.50
2022-12-23T06:43:54.236Z,99145.03
2022-12-23T06:48:56.301Z,99149.44
2022-12-23T06:53:59.741Z,99156.75
2022-12-23T06:59:01.433Z,99150.41
2022-12-23T07:04:03.639Z,99157.81
2022-12-23T07:09:06.254Z,99155.13
2022-12-23T07:14:07.906Z,99156.31
2022-12-23T07:19:09.898Z,99157.84
2022-12-23T07:24:11.618Z,99165.91
2022-12-23T07:29:13.281Z,99170.63
2022-12-23T07:34:14.953Z,99183.56
2022-12-23T07:39:16.595Z,99184.09
2022-12-23T07:44:18.264Z,99187.09
2022-12-23T07:49:19.964Z,99193.66
2022-12-23T07:54:21.628Z,99182.53
2022-12-23T07:59:25.800Z,99188.94
2022-12-23T08:04:27.443Z,99192.63
2022-12-23T08:09:29.068Z,99206.75
2022-12-23T08:14:30.689Z,99187.41
2022-12-23T08:19:32.623Z,99197.66
2022-12-23T08:24:34.281Z,99193.59
2022-12-23T08:29:36.529Z,99185.00
2022-12-23T08:34:38.442Z,99194.56
2022-12-23T08:39:40.100Z,99191.19
2022-12-23T08:44:41.727Z,99200.44
2022-12-23T08:49:43.345Z,99207.50
2022-12-23T08:54:44.960Z,99212.38
2022-12-23T08:59:47.074Z,99216.38
2022-12-23T09:04:48.728Z,99214.66
2022-12-23T09:09:50.661Z,99224.06
2022-12-23T09:14:52.433Z,99227.94
2022-12-23T09:19:54.485Z,99221.53
2022-12-23T09:25:01.272Z,99216.78
2022-12-23T09:30:07.039Z,99219.13
2022-12-23T09:35:08.808Z,99223.16
2022-12-23T09:40:14.891Z,99236.44
2022-12-23T09:45:35.571Z,99234.22
2022-12-23T09:50:42.141Z,99245.31
2022-12-23T09:56:14.728Z,99238.56
2022-12-23T10:01:20.944Z,99243.78
2022-12-23T10:06:25.926Z,99238.84
2022-12-23T10:11:41.187Z,99239.63
2022-12-23T10:16:45.847Z,99247.19
2022-12-23T10:21:53.120Z,99257.63
2022-12-23T10:27:01.505Z,99255.59
2022-12-23T10:32:15.410Z,99253.53
2022-12-23T10:37:28.835Z,99248.25
2022-12-23T10:42:39.505Z,99248.41
2022-12-23T10:47:44.139Z,99241.53
2022-12-23T10:52:46.297Z,99232.72
2022-12-23T10:57:48.019Z,99224.97
2022-12-23T11:02:50.873Z,99231.03
2022-12-23T11:07:52.605Z,99226.47
2022-12-23T11:12:54.606Z,99231.38
2022-12-23T11:18:04.383Z,99252.44
2022-12-23T11:23:24.290Z,99237.94
2022-12-23T11:28:26.646Z,99238.69
2022-12-23T11:33:51.960Z,99247.09
2022-12-23T11:39:07.123Z,99248.41
2022-12-23T11:44:24.653Z,99250.66
2022-12-23T11:49:33.116Z,99253.69
2022-12-23T11:54:35.001Z,99258.84
2022-12-23T11:59:39.596Z,99264.81
2022-12-23T12:04:41.780Z,99276.66
2022-12-23T12:09:45.771Z,99275.16
2022-12-23T12:14:50.644Z,99272.81
2022-12-23T12:20:16.863Z,99267.41
2022-12-23T12:25:22.406Z,99253.91
2022-12-23T12:30:24.105Z,99255.41
2022-12-23T12:35:31.962Z,99247.78
2022-12-23T12:40:41.381Z,99240.13
2022-12-23T12:45:52.246Z,99258.94
2022-12-23T12:51:22.801Z,99252.41
2022-12-23T12:56:32.140Z,99243.56
2022-12-23T13:01:50.012Z,99251.50
2022-12-23T13:07:18.368Z,99248.53
2022-12-23T13:12:35.253Z,99239.28
2022-12-23T13:17:43.850Z,99253.31
2022-12-23T13:22:50.161Z,99248.19
2022-12-23T13:28:20.360Z,99232.06
2022-12-23T13:33:22.073Z,99244.59
2022-12-23T13:38:54.679Z,99248.84
2022-12-23T13:43:57.982Z,99238.38
2022-12-23T13:49:01.853Z,99241.44
2022-12-23T13:54:20.893Z,99235.38
2022-12-23T13:59:22.576Z,99229.31
2022-12-23T14:04:48.344Z,99225.13
2022-12-23T14:09:58.689Z,99218.22
2022-12-23T14:15:39.773Z,99214.88
2022-12-23T14:20:59.060Z,99218.59
2022-12-23T14:26:09.275Z,99210.84
2022-12-23T14:31:31.213Z,99215.91
2022-12-23T14:36:33.512Z,99217.94
2022-12-23T14:41:54.515Z,99219.69
2022-12-23T14:46:57.911Z,99218.72
2022-12-23T14:52:38.056Z,99204.25
2022-12-23T14:57:44.423Z,99197.53
2022-12-23T15:02:46.140Z,99204.28
2022-12-23T15:07:48.111Z,99210.03
2022-12-23T15:12:56.014Z,99201.63
2022-12-23T15:18:06.220Z,99207.19
2022-12-23T15:23:14.867Z,99211.06
2022-12-23T15:28:22.187Z,99220.31
2022-12-23T15:34:01.557Z,99219.97
2022-12-23T15:38:47.682Z,99216.44
2022-12-23T15:43:50.056Z,99203.47
2022-12-23T15:48:51.752Z,99200.66
2022-12-23T15:53:56.236Z,99193.75
2022-12-23T15:58:58.346Z,99176.25
2022-12-23T16:04:00.468Z,99188.06
2022-12-23T16:09:05.851Z,99189.91
2022-12-23T16:14:40.237Z,99187.22
2022-12-23T16:19:48.920Z,99191.94
2022-12-23T16:25:01.237Z,99181.50
2022-12-23T16:30:11.491Z,99178.47
2022-12-23T16:35:34.046Z,99180.69
2022-12-23T16:40:35.816Z,99179.84
2022-12-23T16:45:38.143Z,99178.31
2022-12-23T16:50:39.879Z,99179.34
2022-12-23T16:55:46.792Z,99178.31
2022-12-23T17:00:52.714Z,99165.22
2022-12-23T17:05:54.681Z,99165.06
2022-12-23T17:10:57.039Z,99167.44
2022-12-23T17:15:58.750Z,99155.31
2022-12-23T17:21:00.371Z,99146.09
2022-12-23T17:26:02.002Z,99145.75
2022-12-23T17:31:08.648Z,99130.13
2022-12-23T17:36:14.277Z,99113.66
2022-12-23T17:41:36.259Z,99105.94
2022-12-23T17:46:40.369Z,99095.50
2022-12-23T17:51:42.511Z,99093.34
2022-12-23T17:56:44.194Z,99097.75
2022-12-23T18:01:46.139Z,99097.59
2022-12-23T18:06:47.836Z,99094.59
2022-12-23T18:11:49.553Z,99079.44
2022-12-23T18:16:51.198Z,99098.81
2022-12-23T18:21:52.994Z,99098.19
2022-12-23T18:26:54.611Z,99091.97
2022-12-23T18:31:56.241Z,99086.03
2022-12-23T18:36:57.989Z,99096.31
2022-12-23T18:41:59.825Z,99091.94
2022-12-23T18:47:01.499Z,99093.63
2022-12-23T18:52:04.965Z,99090.59
2022-12-23T18:57:07.289Z,99089.59
2022-12-23T19:02:10.945Z,99093.28
2022-12-23T19:07:13.656Z,99095.94
2022-12-23T19:12:15.398Z,99089.53
2022-12-23T19:17:17.534Z,99078.28
2022-12-23T19:22:19.274Z,99060.50
2022-12-23T19:27:20.916Z,99043.38
2022-12-23T19:32:22.979Z,99037.47
2022-12-23T19:37:24.735Z,99026.22
2022-12-23T19:42:26.974Z,99010.78
2022-12-23T19:47:28.573Z,99002.56
2022-12-23T19:52:30.200Z,98978.06
2022-12-23T19:57:31.887Z,98982.75
2022-12-23T20:02:33.687Z,98962.25
2022-12-23T20:07:36.302Z,98946.31
2022-12-23T20:12:39.350Z,98931.06
2022-12-23T20:17:41.629Z,98927.53
2022-12-23T20:22:43.285Z,98924.84
2022-12-23T20:27:44.921Z,98921.00
2022-12-23T20:32:46.531Z,98925.69
2022-12-23T20:37:48.219Z,98917.78
2022-12-23T20:42:51.180Z,98924.00
2022-12-23T20:47:54.070Z,98919.16
2022-12-23T20:52:55.798Z,98913.63
2022-12-23T20:57:57.418Z,98917.00
2022-12-23T21:02:59.053Z,98922.19
2022-12-23T21:08:01.862Z,98949.88
2022-12-23T21:13:04.245Z,98939.97
2022-12-23T21:18:05.881Z,98928.56
2022-12-23T21:23:07.579Z,98906.56
2022-12-23T21:28:09.763Z,98898.34
2022-12-23T21:33:11.422Z,98892.16
2022-12-23T21:38:13.073Z,98902.53
2022-12-23T21:43:15.201Z,98895.31
2022-12-23T21:48:19.637Z,98891.78
2022-12-23T21:53:21.400Z,98887.75
2022-12-23T21:58:23.027Z,98884.06
2022-12-23T22:03:24.999Z,98878.19
2022-12-23T22:08:26.660Z,98871.13
2022-12-23T22:13:28.595Z,98871.44
2022-12-23T22:18:31.134Z,98888.41
2022-12-23T22:23:33.035Z,98889.75
2022-12-23T22:28:36.360Z,98884.38
2022-12-23T22:33:40.922Z,98901.66
2022-12-23T22:38:43.008Z,98913.09
2022-12-23T22:43:44.870Z,98926.34
2022-12-23T22:48:46.922Z,98930.06
2022-12-23T22:53:48.983Z,98941.31
2022-12-23T22:58:51.671Z,98938.41
2022-12-23T23:03:59.280Z,98960.63
2022-12-23T23:09:01.635Z,98981.50
2022-12-23T23:14:03.810Z,98973.91
2022-12-23T23:19:06.340Z,98983.28
2022-12-23T23:24:08.433Z,98975.56
2022-12-23T23:29:10.096Z,98969.47
2022-12-23T23:34:12.479Z,98988.97
2022-12-23T23:39:14.213Z,98967.81
2022-12-23T23:44:16.266Z,98985.06
2022-12-23T23:49:17.928Z,98991.22
2022-12-23T23:54:19.626Z,98981.16
2022-12-23T23:59:21.257Z,98974.09
